ARE4020 SKBO-SKRG
Flight info
| Callsign | ARE4020 |
|---|---|
| Flight time | 0h 28m |
| Altitude | 20000 |
| Route | TOBKI4R VASIL W36 NIRSO NIRSO3C |
| Aircraft | A320/M-SDE3FGHIRWY/LB1 |
Departure
| Time | 2026-05-09 00:36 |
|---|---|
| Airport | El Dorado International Airport (SKBO) |
Arrival
| Time | 2026-05-09 01:04 |
|---|---|
| Airport | Jose Maria Córdova International Airport (SKRG) |
| Time | Latitude | Longitude | Altitude | Speed | Heading |
|---|---|---|---|---|---|
| 2026-05-08 23:55 | 4.69974 | -74.14298 | 8373 ft | 0 kts | 37° |
| 2026-05-09 00:22 | 4.69965 | -74.14304 | 8371 ft | 4 kts | 37° |
| 2026-05-09 00:22 | 4.69944 | -74.14321 | 8371 ft | 4 kts | 34° |
| 2026-05-09 00:22 | 4.69921 | -74.14333 | 8373 ft | 4 kts | 3° |
| 2026-05-09 00:22 | 4.69908 | -74.14330 | 8371 ft | 0 kts | 307° |
| 2026-05-09 00:23 | 4.69924 | -74.14352 | 8370 ft | 4 kts | 307° |
| 2026-05-09 00:23 | 4.69940 | -74.14373 | 8373 ft | 4 kts | 308° |
| 2026-05-09 00:23 | 4.69951 | -74.14388 | 8373 ft | 0 kts | 308° |
| 2026-05-09 00:25 | 4.69957 | -74.14396 | 8373 ft | 4 kts | 308° |
| 2026-05-09 00:26 | 4.69990 | -74.14440 | 8373 ft | 10 kts | 307° |
| 2026-05-09 00:26 | 4.70035 | -74.14499 | 8372 ft | 11 kts | 308° |
| 2026-05-09 00:26 | 4.70080 | -74.14568 | 8372 ft | 12 kts | 288° |
| 2026-05-09 00:26 | 4.70131 | -74.14642 | 8373 ft | 14 kts | 323° |
| 2026-05-09 00:27 | 4.70152 | -74.14720 | 8372 ft | 14 kts | 229° |
| 2026-05-09 00:27 | 4.70063 | -74.14789 | 8373 ft | 17 kts | 216° |
| 2026-05-09 00:27 | 4.69964 | -74.14863 | 8373 ft | 18 kts | 217° |
| 2026-05-09 00:27 | 4.69867 | -74.14938 | 8373 ft | 15 kts | 225° |
| 2026-05-09 00:28 | 4.69886 | -74.15015 | 8373 ft | 14 kts | 308° |
| 2026-05-09 00:28 | 4.69944 | -74.15091 | 8372 ft | 14 kts | 308° |
| 2026-05-09 00:28 | 4.70010 | -74.15179 | 8373 ft | 17 kts | 307° |
| 2026-05-09 00:28 | 4.70085 | -74.15278 | 8373 ft | 18 kts | 307° |
| 2026-05-09 00:29 | 4.70157 | -74.15374 | 8374 ft | 17 kts | 307° |
| 2026-05-09 00:29 | 4.70225 | -74.15463 | 8373 ft | 16 kts | 307° |
| 2026-05-09 00:29 | 4.70290 | -74.15551 | 8373 ft | 16 kts | 307° |
| 2026-05-09 00:29 | 4.70359 | -74.15641 | 8373 ft | 17 kts | 306° |
| 2026-05-09 00:30 | 4.70429 | -74.15735 | 8373 ft | 17 kts | 307° |
| 2026-05-09 00:30 | 4.70502 | -74.15831 | 8373 ft | 17 kts | 307° |
| 2026-05-09 00:30 | 4.70577 | -74.15929 | 8373 ft | 18 kts | 307° |
| 2026-05-09 00:30 | 4.70653 | -74.16029 | 8372 ft | 18 kts | 307° |
| 2026-05-09 00:31 | 4.70731 | -74.16132 | 8374 ft | 19 kts | 307° |
| 2026-05-09 00:31 | 4.70811 | -74.16237 | 8373 ft | 19 kts | 307° |
| 2026-05-09 00:31 | 4.70892 | -74.16345 | 8372 ft | 20 kts | 307° |
| 2026-05-09 00:31 | 4.70981 | -74.16461 | 8373 ft | 21 kts | 307° |
| 2026-05-09 00:32 | 4.71071 | -74.16581 | 8373 ft | 22 kts | 308° |
| 2026-05-09 00:32 | 4.71155 | -74.16691 | 8372 ft | 17 kts | 308° |
| 2026-05-09 00:32 | 4.71211 | -74.16768 | 8373 ft | 12 kts | 304° |
| 2026-05-09 00:32 | 4.71251 | -74.16835 | 8373 ft | 10 kts | 280° |
| 2026-05-09 00:33 | 4.71236 | -74.16865 | 8371 ft | 2 kts | 222° |
| 2026-05-09 00:33 | 4.71230 | -74.16869 | 8372 ft | 0 kts | 214° |
| 2026-05-09 00:33 | 4.71225 | -74.16873 | 8373 ft | 4 kts | 214° |
| 2026-05-09 00:34 | 4.71189 | -74.16895 | 8373 ft | 8 kts | 199° |
| 2026-05-09 00:34 | 4.71135 | -74.16894 | 8373 ft | 7 kts | 173° |
| 2026-05-09 00:34 | 4.71091 | -74.16888 | 8372 ft | 5 kts | 173° |
| 2026-05-09 00:34 | 4.71051 | -74.16893 | 8373 ft | 5 kts | 189° |
| 2026-05-09 00:35 | 4.70994 | -74.16836 | 8370 ft | 23 kts | 127° |
| 2026-05-09 00:35 | 4.70758 | -74.16523 | 8375 ft | 90 kts | 127° |
| 2026-05-09 00:35 | 4.70254 | -74.15858 | 8373 ft | 147 kts | 127° |
| 2026-05-09 00:35 | 4.69533 | -74.14906 | 8378 ft | 194 kts | 127° |
| 2026-05-09 00:36 | 4.68714 | -74.13824 | 8980 ft | 196 kts | 129° |
| 2026-05-09 00:36 | 4.67628 | -74.13071 | 9573 ft | 189 kts | 166° |
| 2026-05-09 00:36 | 4.66345 | -74.13126 | 10048 ft | 191 kts | 202° |
| 2026-05-09 00:36 | 4.65296 | -74.13993 | 10252 ft | 207 kts | 239° |
| 2026-05-09 00:37 | 4.64589 | -74.15317 | 10480 ft | 222 kts | 241° |
| 2026-05-09 00:37 | 4.63830 | -74.16713 | 10733 ft | 235 kts | 240° |
| 2026-05-09 00:37 | 4.63017 | -74.18195 | 10988 ft | 250 kts | 239° |
| 2026-05-09 00:37 | 4.62156 | -74.19734 | 11483 ft | 255 kts | 240° |
| 2026-05-09 00:38 | 4.61456 | -74.21366 | 12046 ft | 260 kts | 256° |
| 2026-05-09 00:38 | 4.61060 | -74.23220 | 12231 ft | 284 kts | 258° |
| 2026-05-09 00:38 | 4.60664 | -74.25243 | 12395 ft | 307 kts | 259° |
| 2026-05-09 00:38 | 4.60277 | -74.27441 | 12542 ft | 331 kts | 263° |
| 2026-05-09 00:39 | 4.60042 | -74.29779 | 12731 ft | 350 kts | 266° |
| 2026-05-09 00:39 | 4.59901 | -74.32243 | 13250 ft | 357 kts | 268° |
| 2026-05-09 00:39 | 4.59801 | -74.34753 | 13833 ft | 362 kts | 268° |
| 2026-05-09 00:39 | 4.59709 | -74.37291 | 14378 ft | 366 kts | 268° |
| 2026-05-09 00:40 | 4.59734 | -74.39841 | 14949 ft | 368 kts | 280° |
| 2026-05-09 00:40 | 4.60624 | -74.42237 | 15494 ft | 369 kts | 300° |
| 2026-05-09 00:40 | 4.62024 | -74.44406 | 16056 ft | 371 kts | 307° |
| 2026-05-09 00:41 | 4.65347 | -74.48418 | 17162 ft | 377 kts | 311° |
| 2026-05-09 00:41 | 4.67082 | -74.50401 | 17638 ft | 380 kts | 311° |
| 2026-05-09 00:41 | 4.68802 | -74.52418 | 18189 ft | 383 kts | 310° |
| 2026-05-09 00:41 | 4.70483 | -74.54461 | 18694 ft | 385 kts | 309° |
| 2026-05-09 00:42 | 4.72165 | -74.56571 | 19142 ft | 389 kts | 308° |
| 2026-05-09 00:42 | 4.73840 | -74.58710 | 19608 ft | 391 kts | 309° |
| 2026-05-09 00:42 | 4.75720 | -74.60697 | 19983 ft | 394 kts | 319° |
| 2026-05-09 00:42 | 4.77888 | -74.62381 | 20080 ft | 392 kts | 323° |
| 2026-05-09 00:43 | 4.79318 | -74.63445 | 20112 ft | 381 kts | 323° |
| 2026-05-09 00:43 | 4.81425 | -74.64999 | 20082 ft | 374 kts | 323° |
| 2026-05-09 00:43 | 4.84217 | -74.67050 | 20084 ft | 371 kts | 323° |
| 2026-05-09 00:43 | 4.86284 | -74.68598 | 20084 ft | 371 kts | 322° |
| 2026-05-09 00:44 | 4.87639 | -74.69642 | 20085 ft | 371 kts | 322° |
| 2026-05-09 00:44 | 4.89669 | -74.71233 | 20084 ft | 371 kts | 322° |
| 2026-05-09 00:44 | 4.91696 | -74.72838 | 20084 ft | 371 kts | 321° |
| 2026-05-09 00:44 | 4.93578 | -74.74592 | 20043 ft | 370 kts | 310° |
| 2026-05-09 00:45 | 4.95068 | -74.76694 | 20023 ft | 370 kts | 298° |
| 2026-05-09 00:45 | 4.96211 | -74.79006 | 20020 ft | 370 kts | 295° |
| 2026-05-09 00:45 | 4.97335 | -74.81332 | 20005 ft | 370 kts | 296° |
| 2026-05-09 00:45 | 4.98467 | -74.83651 | 19991 ft | 370 kts | 296° |
| 2026-05-09 00:46 | 4.99604 | -74.85967 | 19977 ft | 370 kts | 296° |
| 2026-05-09 00:46 | 5.00722 | -74.88244 | 19961 ft | 370 kts | 296° |
| 2026-05-09 00:46 | 5.01855 | -74.90557 | 19953 ft | 370 kts | 296° |
| 2026-05-09 00:46 | 5.02986 | -74.92877 | 19947 ft | 370 kts | 296° |
| 2026-05-09 00:47 | 5.04103 | -74.95177 | 19943 ft | 370 kts | 296° |
| 2026-05-09 00:47 | 5.05214 | -74.97470 | 19943 ft | 370 kts | 296° |
| 2026-05-09 00:47 | 5.06340 | -74.99792 | 19946 ft | 370 kts | 296° |
| 2026-05-09 00:47 | 5.07467 | -75.02113 | 20090 ft | 370 kts | 296° |
| 2026-05-09 00:48 | 5.08593 | -75.04429 | 20091 ft | 370 kts | 296° |
| 2026-05-09 00:48 | 5.09722 | -75.06748 | 20115 ft | 370 kts | 296° |
| 2026-05-09 00:48 | 5.10847 | -75.09063 | 20123 ft | 370 kts | 295° |
| 2026-05-09 00:48 | 5.11977 | -75.11389 | 20123 ft | 370 kts | 296° |
| 2026-05-09 00:49 | 5.13102 | -75.13707 | 20132 ft | 370 kts | 295° |
| 2026-05-09 00:49 | 5.14230 | -75.16028 | 20143 ft | 370 kts | 295° |
| 2026-05-09 00:49 | 5.15415 | -75.18311 | 20153 ft | 370 kts | 302° |
| 2026-05-09 00:49 | 5.16970 | -75.20359 | 20105 ft | 368 kts | 311° |
| 2026-05-09 00:50 | 5.18656 | -75.22261 | 19880 ft | 360 kts | 311° |
| 2026-05-09 00:50 | 5.20283 | -75.24094 | 19658 ft | 353 kts | 311° |
| 2026-05-09 00:50 | 5.21902 | -75.25919 | 19441 ft | 348 kts | 311° |
| 2026-05-09 00:50 | 5.23506 | -75.27726 | 19213 ft | 346 kts | 311° |
| 2026-05-09 00:51 | 5.25101 | -75.29528 | 18991 ft | 344 kts | 311° |
| 2026-05-09 00:51 | 5.26684 | -75.31322 | 18769 ft | 343 kts | 311° |
| 2026-05-09 00:51 | 5.28264 | -75.33117 | 18543 ft | 342 kts | 311° |
| 2026-05-09 00:51 | 5.29836 | -75.34898 | 18302 ft | 340 kts | 311° |
| 2026-05-09 00:52 | 5.31412 | -75.36664 | 18008 ft | 339 kts | 315° |
| 2026-05-09 00:52 | 5.33213 | -75.38175 | 17738 ft | 337 kts | 327° |
| 2026-05-09 00:52 | 5.35283 | -75.39271 | 17470 ft | 336 kts | 339° |
| 2026-05-09 00:52 | 5.37520 | -75.39910 | 17212 ft | 334 kts | 351° |
| 2026-05-09 00:53 | 5.39836 | -75.40121 | 16958 ft | 333 kts | 357° |
| 2026-05-09 00:53 | 5.42142 | -75.40247 | 16708 ft | 332 kts | 357° |
| 2026-05-09 00:53 | 5.44433 | -75.40375 | 16471 ft | 331 kts | 357° |
| 2026-05-09 00:53 | 5.46720 | -75.40503 | 16207 ft | 329 kts | 357° |
| 2026-05-09 00:54 | 5.49003 | -75.40632 | 15972 ft | 328 kts | 357° |
| 2026-05-09 00:54 | 5.51279 | -75.40757 | 15733 ft | 326 kts | 357° |
| 2026-05-09 00:54 | 5.53540 | -75.40881 | 15499 ft | 325 kts | 357° |
| 2026-05-09 00:54 | 5.55768 | -75.41006 | 15268 ft | 323 kts | 357° |
| 2026-05-09 00:55 | 5.58010 | -75.41131 | 15038 ft | 322 kts | 357° |
| 2026-05-09 00:55 | 5.60244 | -75.41255 | 14791 ft | 321 kts | 357° |
| 2026-05-09 00:55 | 5.62476 | -75.41379 | 14562 ft | 320 kts | 357° |
| 2026-05-09 00:55 | 5.64698 | -75.41502 | 14330 ft | 319 kts | 357° |
| 2026-05-09 00:56 | 5.66904 | -75.41626 | 14108 ft | 318 kts | 357° |
| 2026-05-09 00:56 | 5.69114 | -75.41750 | 13884 ft | 317 kts | 357° |
| 2026-05-09 00:56 | 5.71309 | -75.41871 | 13634 ft | 314 kts | 357° |
| 2026-05-09 00:56 | 5.73474 | -75.41993 | 13380 ft | 309 kts | 357° |
| 2026-05-09 00:57 | 5.75600 | -75.42112 | 13125 ft | 304 kts | 357° |
| 2026-05-09 00:57 | 5.77695 | -75.42225 | 12870 ft | 296 kts | 358° |
| 2026-05-09 00:57 | 5.79708 | -75.42277 | 12622 ft | 281 kts | 0° |
| 2026-05-09 00:57 | 5.81630 | -75.42278 | 12398 ft | 272 kts | 1° |
| 2026-05-09 00:58 | 5.83503 | -75.42262 | 12115 ft | 268 kts | 1° |
| 2026-05-09 00:58 | 5.85311 | -75.42245 | 11954 ft | 251 kts | 1° |
| 2026-05-09 00:58 | 5.87019 | -75.42234 | 11870 ft | 242 kts | 1° |
| 2026-05-09 00:58 | 5.88674 | -75.42226 | 11692 ft | 241 kts | 1° |
| 2026-05-09 00:59 | 5.90344 | -75.42173 | 11445 ft | 238 kts | 2° |
| 2026-05-09 00:59 | 5.92000 | -75.42154 | 11182 ft | 238 kts | 1° |
| 2026-05-09 00:59 | 5.93650 | -75.42163 | 10904 ft | 237 kts | 0° |
| 2026-05-09 00:59 | 5.95298 | -75.42175 | 10628 ft | 235 kts | 1° |
| 2026-05-09 01:00 | 5.96928 | -75.42186 | 10360 ft | 233 kts | 1° |
| 2026-05-09 01:00 | 5.98536 | -75.42196 | 10116 ft | 229 kts | 1° |
| 2026-05-09 01:00 | 6.00114 | -75.42206 | 9799 ft | 224 kts | 1° |
| 2026-05-09 01:00 | 6.01656 | -75.42216 | 9516 ft | 218 kts | 1° |
| 2026-05-09 01:01 | 6.03134 | -75.42226 | 9251 ft | 206 kts | 1° |
| 2026-05-09 01:01 | 6.04524 | -75.42235 | 9010 ft | 194 kts | 1° |
| 2026-05-09 01:01 | 6.05834 | -75.42244 | 8773 ft | 182 kts | 1° |
| 2026-05-09 01:01 | 6.07044 | -75.42252 | 8568 ft | 168 kts | 1° |
| 2026-05-09 01:02 | 6.08192 | -75.42259 | 8379 ft | 163 kts | 1° |
| 2026-05-09 01:02 | 6.09314 | -75.42266 | 8175 ft | 160 kts | 1° |
| 2026-05-09 01:02 | 6.10421 | -75.42267 | 7914 ft | 159 kts | 1° |
| 2026-05-09 01:02 | 6.11522 | -75.42269 | 7695 ft | 157 kts | 0° |
| 2026-05-09 01:03 | 6.12601 | -75.42280 | 7502 ft | 157 kts | 0° |
| 2026-05-09 01:03 | 6.13687 | -75.42293 | 7274 ft | 156 kts | 0° |
| 2026-05-09 01:03 | 6.14782 | -75.42296 | 7048 ft | 155 kts | 0° |
| 2026-05-09 01:03 | 6.15805 | -75.42304 | 6979 ft | 125 kts | 359° |
| 2026-05-09 01:04 | 6.16389 | -75.42310 | 6983 ft | 57 kts | 360° |
| 2026-05-09 01:04 | 6.16745 | -75.42313 | 6993 ft | 46 kts | 358° |
| 2026-05-09 01:04 | 6.16941 | -75.42326 | 6999 ft | 20 kts | 343° |
| 2026-05-09 01:04 | 6.17059 | -75.42382 | 7013 ft | 18 kts | 328° |
| 2026-05-09 01:05 | 6.17156 | -75.42443 | 7016 ft | 13 kts | 326° |
| 2026-05-09 01:05 | 6.17186 | -75.42500 | 7016 ft | 8 kts | 273° |
| 2026-05-09 01:05 | 6.17183 | -75.42579 | 7017 ft | 0 kts | 266° |
| 2026-05-09 01:06 | 6.17179 | -75.42611 | 7017 ft | 9 kts | 256° |
| 2026-05-09 01:06 | 6.17137 | -75.42620 | 7017 ft | 6 kts | 168° |
| 2026-05-09 01:06 | 6.17091 | -75.42619 | 7016 ft | 7 kts | 191° |
| 2026-05-09 01:06 | 6.17051 | -75.42639 | 7020 ft | 7 kts | 214° |
| 2026-05-09 01:07 | 6.17021 | -75.42663 | 7019 ft | 5 kts | 221° |
| 2026-05-09 01:07 | 6.17013 | -75.42690 | 7018 ft | 4 kts | 286° |
| 2026-05-09 01:07 | 6.17028 | -75.42709 | 7021 ft | 3 kts | 307° |
| 2026-05-09 01:07 | 6.17030 | -75.42713 | 7021 ft | 0 kts | 307° |